createdAt,value
2023-05-17T00:00:08.864Z,2.70
2023-05-17T00:05:08.319Z,2.63
2023-05-17T00:10:08.324Z,2.80
2023-05-17T00:15:08.322Z,2.40
2023-05-17T00:20:08.283Z,2.80
2023-05-17T00:25:08.265Z,2.55
2023-05-17T00:30:08.242Z,3.22
2023-05-17T00:35:08.289Z,2.53
2023-05-17T00:40:08.361Z,3.17
2023-05-17T00:45:08.314Z,2.70
2023-05-17T00:50:08.316Z,2.90
2023-05-17T00:55:08.315Z,3.03
2023-05-17T01:00:08.286Z,2.88
2023-05-17T01:05:08.646Z,2.47
2023-05-17T01:10:08.716Z,2.85
2023-05-17T01:15:08.721Z,3.17
2023-05-17T01:20:09.105Z,2.90
2023-05-17T01:25:08.329Z,2.83
2023-05-17T01:30:08.348Z,2.80
2023-05-17T01:35:08.383Z,2.70
2023-05-17T01:40:08.391Z,3.33
2023-05-17T01:45:08.380Z,2.97
2023-05-17T01:50:08.362Z,3.13
2023-05-17T01:55:08.367Z,2.60
2023-05-17T02:00:08.355Z,3.50
2023-05-17T02:05:08.441Z,3.22
2023-05-17T02:10:08.503Z,3.22
2023-05-17T02:15:08.497Z,2.90
2023-05-17T02:20:08.474Z,3.05
2023-05-17T02:25:08.517Z,3.63
2023-05-17T02:30:08.545Z,3.20
2023-05-17T02:35:08.556Z,2.90
2023-05-17T02:40:08.593Z,2.75
2023-05-17T02:45:08.582Z,3.03
2023-05-17T02:50:08.599Z,3.95
2023-05-17T02:55:08.591Z,3.92
2023-05-17T03:00:08.537Z,3.33
2023-05-17T03:05:08.572Z,2.75
2023-05-17T03:10:08.579Z,3.58
2023-05-17T03:15:08.604Z,3.47
2023-05-17T03:20:08.623Z,3.22
2023-05-17T03:25:08.571Z,3.80
2023-05-17T03:30:08.563Z,3.50
2023-05-17T03:35:08.582Z,3.55
2023-05-17T03:40:08.591Z,3.60
2023-05-17T03:45:08.590Z,3.92
2023-05-17T03:50:08.598Z,3.65
2023-05-17T03:55:08.603Z,3.95
2023-05-17T04:00:08.609Z,3.80
2023-05-17T04:05:03.104Z,4.30
2023-05-17T04:10:02.227Z,3.88
2023-05-17T04:15:02.382Z,3.50
2023-05-17T04:20:02.478Z,3.45
2023-05-17T04:25:02.532Z,3.78
2023-05-17T04:30:02.399Z,3.97
2023-05-17T04:35:02.818Z,3.10
2023-05-17T04:40:02.957Z,3.58
2023-05-17T04:45:02.060Z,3.78
2023-05-17T04:50:02.221Z,3.45
2023-05-17T04:55:02.464Z,3.58
2023-05-17T05:00:02.631Z,4.00
2023-05-17T05:05:02.901Z,3.38
2023-05-17T05:10:02.283Z,3.22
2023-05-17T05:15:02.475Z,3.80
2023-05-17T05:20:02.694Z,3.92
2023-05-17T05:25:02.869Z,3.15
2023-05-17T05:30:03.035Z,3.50
2023-05-17T05:35:02.165Z,3.15
2023-05-17T05:40:02.395Z,2.92
2023-05-17T05:45:02.543Z,3.08
2023-05-17T05:50:02.660Z,2.88
2023-05-17T05:55:02.679Z,3.13
2023-05-17T06:00:02.724Z,2.88
2023-05-17T06:05:02.757Z,3.25
2023-05-17T06:10:02.802Z,3.63
2023-05-17T06:15:02.976Z,3.40
2023-05-17T06:20:02.306Z,3.30
2023-05-17T06:25:02.390Z,2.47
2023-05-17T06:30:04.883Z,2.85
2023-05-17T06:35:02.611Z,2.63
2023-05-17T06:40:10.037Z,3.17
2023-05-17T06:45:02.343Z,2.30
2023-05-17T06:50:02.651Z,2.83
2023-05-17T06:55:02.919Z,2.95
2023-05-17T07:00:03.106Z,3.22
2023-05-17T07:05:02.405Z,2.45
2023-05-17T07:10:03.214Z,2.53
2023-05-17T07:15:02.515Z,2.78
2023-05-17T07:20:02.838Z,2.50
2023-05-17T07:25:02.176Z,2.35
2023-05-17T07:30:02.350Z,2.45
2023-05-17T07:35:02.536Z,2.92
2023-05-17T07:40:02.866Z,2.10
2023-05-17T07:45:03.015Z,2.08
2023-05-17T07:50:02.197Z,2.53
2023-05-17T07:55:02.471Z,2.30
2023-05-17T08:00:02.814Z,2.40
2023-05-17T08:05:02.950Z,2.78
2023-05-17T08:10:02.153Z,2.22
2023-05-17T08:15:02.301Z,2.90
2023-05-17T08:20:02.408Z,2.40
2023-05-17T08:25:02.506Z,2.75
2023-05-17T08:30:04.006Z,1.90
2023-05-17T08:35:02.517Z,1.90
2023-05-17T08:40:02.586Z,3.20
2023-05-17T08:45:02.712Z,2.50
2023-05-17T08:50:02.755Z,2.88
2023-05-17T08:55:02.926Z,2.20
2023-05-17T09:00:03.075Z,2.50
2023-05-17T09:05:02.456Z,2.33
2023-05-17T09:10:02.597Z,3.28
2023-05-17T09:15:02.824Z,2.60
2023-05-17T09:20:03.037Z,2.00
2023-05-17T09:25:02.173Z,2.50
2023-05-17T09:30:02.231Z,2.78
2023-05-17T09:35:02.790Z,2.53
2023-05-17T09:40:03.093Z,1.98
2023-05-17T09:45:02.231Z,1.73
2023-05-17T09:50:02.429Z,1.98
2023-05-17T09:55:02.645Z,1.85
2023-05-17T10:00:02.734Z,1.58
2023-05-17T10:05:03.161Z,1.95
2023-05-17T10:10:02.300Z,1.90
2023-05-17T10:15:02.643Z,1.92
2023-05-17T10:20:03.046Z,2.63
2023-05-17T10:25:02.480Z,1.98
2023-05-17T10:30:02.577Z,2.17
2023-05-17T10:35:11.419Z,1.70
2023-05-17T10:40:02.443Z,1.92
2023-05-17T10:45:02.573Z,2.53
2023-05-17T10:50:03.134Z,2.35
2023-05-17T10:55:02.303Z,2.10
2023-05-17T11:00:02.457Z,1.85
2023-05-17T11:05:02.732Z,1.73
2023-05-17T11:10:02.861Z,2.13
2023-05-17T11:15:02.920Z,2.05
2023-05-17T11:20:02.363Z,1.77
2023-05-17T11:25:02.589Z,2.20
2023-05-17T11:30:02.740Z,1.77
2023-05-17T11:35:02.995Z,1.75
2023-05-17T11:40:02.191Z,1.80
2023-05-17T11:45:02.268Z,1.60
2023-05-17T11:50:02.316Z,1.95
2023-05-17T11:55:02.439Z,2.05
2023-05-17T12:00:02.633Z,1.77
2023-05-17T12:05:02.931Z,1.70
2023-05-17T12:10:02.234Z,2.00
2023-05-17T12:15:02.399Z,1.77
2023-05-17T12:20:02.554Z,2.13
2023-05-17T12:25:02.739Z,1.77
2023-05-17T12:30:03.071Z,1.90
2023-05-17T12:35:02.257Z,2.10
2023-05-17T12:40:02.521Z,1.80
2023-05-17T12:45:02.660Z,2.40
2023-05-17T12:50:02.829Z,2.03
2023-05-17T12:55:03.160Z,2.33
2023-05-17T13:00:02.403Z,2.10
2023-05-17T13:05:02.686Z,2.35
2023-05-17T13:10:02.898Z,2.03
2023-05-17T13:15:03.046Z,2.30
2023-05-17T13:20:02.331Z,2.38
2023-05-17T13:25:02.919Z,2.17
2023-05-17T13:30:02.133Z,2.38
2023-05-17T13:35:02.316Z,2.28
2023-05-17T13:40:02.509Z,2.15
2023-05-17T13:45:02.545Z,2.10
2023-05-17T13:50:02.594Z,2.17
2023-05-17T13:55:02.730Z,2.53
2023-05-17T14:00:02.778Z,2.40
2023-05-17T14:05:02.986Z,1.95
2023-05-17T14:10:02.100Z,1.98
2023-05-17T14:15:02.199Z,2.25
2023-05-17T14:20:02.364Z,2.47
2023-05-17T14:25:02.437Z,2.70
2023-05-17T14:30:02.570Z,2.20
2023-05-17T14:35:02.829Z,2.13
2023-05-17T14:40:07.028Z,2.35
2023-05-17T14:45:02.293Z,2.50
2023-05-17T14:50:02.396Z,2.55
2023-05-17T14:55:02.513Z,2.50
2023-05-17T15:00:02.594Z,2.00
2023-05-17T15:05:02.779Z,2.00
2023-05-17T15:10:02.939Z,2.20
2023-05-17T15:15:02.068Z,2.30
2023-05-17T15:20:02.245Z,2.25
2023-05-17T15:25:02.553Z,2.20
2023-05-17T15:30:02.812Z,2.53
2023-05-17T15:35:03.117Z,2.55
2023-05-17T15:40:02.223Z,2.38
2023-05-17T15:45:02.348Z,2.17
2023-05-17T15:50:02.516Z,2.55
2023-05-17T15:55:02.778Z,2.15
2023-05-17T16:00:02.901Z,2.15
2023-05-17T16:05:04.297Z,2.58
2023-05-17T16:10:02.836Z,2.83
2023-05-17T16:15:03.081Z,2.50
2023-05-17T16:20:02.387Z,2.55
2023-05-17T16:25:02.791Z,2.70
2023-05-17T16:30:02.834Z,2.22
2023-05-17T16:35:02.867Z,2.33
2023-05-17T16:40:02.902Z,3.00
2023-05-17T16:45:02.940Z,2.28
2023-05-17T16:50:02.193Z,2.60
2023-05-17T16:55:02.560Z,2.25
2023-05-17T17:00:02.830Z,2.70
2023-05-17T17:05:02.221Z,1.90
2023-05-17T17:10:02.392Z,2.30
2023-05-17T17:15:02.441Z,2.63
2023-05-17T17:20:02.471Z,1.65
2023-05-17T17:25:02.651Z,2.10
2023-05-17T17:30:02.759Z,2.17
2023-05-17T17:35:02.923Z,2.22
2023-05-17T17:40:03.045Z,2.90
2023-05-17T17:45:02.158Z,2.20
2023-05-17T17:50:02.425Z,1.90
2023-05-17T17:55:02.662Z,1.83
2023-05-17T18:00:03.553Z,1.90
2023-05-17T18:05:03.033Z,1.58
2023-05-17T18:10:02.228Z,2.10
2023-05-17T18:15:02.485Z,2.15
2023-05-17T18:20:02.729Z,2.42
2023-05-17T18:25:02.979Z,2.03
2023-05-17T18:30:02.228Z,1.70
2023-05-17T18:35:02.506Z,2.10
2023-05-17T18:40:02.762Z,2.40
2023-05-17T18:45:02.902Z,2.10
2023-05-17T18:50:03.200Z,1.70
2023-05-17T18:55:02.369Z,2.00
2023-05-17T19:00:02.494Z,1.90
2023-05-17T19:05:02.757Z,1.60
2023-05-17T19:10:02.900Z,1.90
2023-05-17T19:15:03.182Z,2.20
2023-05-17T19:20:02.399Z,1.85
2023-05-17T19:25:02.458Z,2.40
2023-05-17T19:30:02.557Z,2.10
2023-05-17T19:35:02.848Z,2.03
2023-05-17T19:40:02.993Z,2.03
2023-05-17T19:45:02.108Z,1.90
2023-05-17T19:50:02.393Z,1.60
2023-05-17T19:55:02.490Z,2.10
2023-05-17T20:00:02.528Z,1.98
2023-05-17T20:05:02.554Z,2.00
2023-05-17T20:10:02.761Z,1.90
2023-05-17T20:15:02.850Z,1.83
2023-05-17T20:20:02.973Z,2.05
2023-05-17T20:25:02.078Z,1.80
2023-05-17T20:30:02.159Z,1.65
2023-05-17T20:35:02.267Z,2.35
2023-05-17T20:40:02.576Z,2.63
2023-05-17T20:45:02.644Z,2.22
2023-05-17T20:50:02.769Z,2.03
2023-05-17T20:55:02.812Z,1.90
2023-05-17T21:00:03.062Z,1.92
2023-05-17T21:05:21.952Z,1.67
2023-05-17T21:10:07.970Z,2.15
2023-05-17T21:15:16.889Z,1.67
2023-05-17T21:20:08.507Z,1.67
2023-05-17T21:25:08.519Z,2.08
2023-05-17T21:30:08.528Z,2.10
2023-05-17T21:35:08.515Z,1.45
2023-05-17T21:40:08.542Z,1.83
2023-05-17T21:45:08.899Z,1.80
2023-05-17T21:50:08.935Z,2.00
2023-05-17T21:55:07.925Z,2.05
2023-05-17T22:00:08.941Z,1.90
2023-05-17T22:05:07.990Z,2.08
2023-05-17T22:10:09.765Z,1.95
2023-05-17T22:15:08.175Z,2.25
2023-05-17T22:20:08.262Z,2.03
2023-05-17T22:25:08.256Z,2.05
2023-05-17T22:30:08.287Z,2.13
2023-05-17T22:35:08.324Z,2.00
2023-05-17T22:40:08.317Z,2.28
2023-05-17T22:45:08.317Z,2.15
2023-05-17T22:50:08.320Z,1.83
2023-05-17T22:55:08.380Z,2.10
2023-05-17T23:01:16.373Z,2.88
2023-05-17T23:05:08.395Z,2.22
2023-05-17T23:10:08.497Z,2.10
2023-05-17T23:15:08.531Z,2.30
2023-05-17T23:20:08.501Z,1.83
2023-05-17T23:25:08.465Z,2.05
2023-05-17T23:30:08.504Z,2.20
2023-05-17T23:35:08.469Z,2.40
2023-05-17T23:40:08.455Z,1.90
2023-05-17T23:45:08.463Z,1.83
2023-05-17T23:50:08.462Z,2.25
2023-05-17T23:55:08.442Z,1.70
